Time;durP1;ratioP1;P1;durP2;ratioP2;P2;SDS_P1;SDS_P2;PMS_P1;PMS_P2;Temp;Humidity;BMP_temperature;BMP_pressure;BME280_temperature;BME280_humidity;BME280_pressure;Samples;Min_cycle;Max_cycle;Signal;HPM_P1;HPM_P2
2023/03/29 00:00:19;;;;;;;;;;;4.50;99.90;;;;;;5027939;28;19929;-64
2023/03/29 00:02:47;;;;;;;;;;;4.50;99.90;;;;;;5031975;28;19980;-63
2023/03/29 00:05:14;;;;;;;;;;;4.40;99.90;;;;;;5031084;28;19948;-64
2023/03/29 00:07:42;;;;;;;;;;;4.40;99.90;;;;;;5031981;28;19929;-64
2023/03/29 00:10:09;;;;;;;;;;;4.40;99.90;;;;;;5027487;28;19955;-64
2023/03/29 00:12:37;;;;;;;;;;;4.40;99.90;;;;;;5032227;28;19925;-64
2023/03/29 00:15:04;;;;;;;;;;;4.40;99.90;;;;;;5027217;28;20318;-64
2023/03/29 00:17:30;;;;;;;;;;;4.50;99.90;;;;;;5031957;28;19925;-63
2023/03/29 00:19:57;;;;;;;;;;;4.50;99.90;;;;;;5025247;28;19971;-63
2023/03/29 00:22:24;;;;;;;;;;;4.50;99.90;;;;;;5032045;28;19932;-64
2023/03/29 00:24:53;;;;;;;;;;;4.50;99.90;;;;;;5027498;28;19925;-64
2023/03/29 00:27:20;;;;;;;;;;;4.50;99.90;;;;;;5031735;28;19975;-64
2023/03/29 00:29:46;;;;;;;;;;;4.50;99.90;;;;;;5027936;28;19979;-64
2023/03/29 00:32:13;;;;;;;;;;;4.50;99.90;;;;;;5031730;28;20387;-64
2023/03/29 00:34:41;;;;;;;;;;;4.60;99.90;;;;;;5027414;28;19925;-64
2023/03/29 00:37:08;;;;;;;;;;;4.60;99.90;;;;;;5027373;28;20015;-64
2023/03/29 00:39:35;;;;;;;;;;;4.60;99.90;;;;;;5038098;28;20176;-64
2023/03/29 00:42:03;;;;;;;;;;;4.60;99.90;;;;;;5039941;28;19925;-64
2023/03/29 00:44:48;;;;;;;;;;;4.70;99.90;;;;;;5020098;28;19926;-64
2023/03/29 00:47:16;;;;;;;;;;;4.70;99.90;;;;;;5045976;28;20364;-64
2023/03/29 00:49:43;;;;;;;;;;;4.70;99.90;;;;;;5051702;28;19937;-64
2023/03/29 00:52:10;;;;;;;;;;;4.80;99.90;;;;;;5046319;28;19925;-64
2023/03/29 00:54:37;;;;;;;;;;;4.80;99.90;;;;;;5026198;28;19979;-63
2023/03/29 00:57:06;;;;;;;;;;;4.80;99.90;;;;;;5031129;28;19931;-64
2023/03/29 00:59:34;;;;;;;;;;;4.80;99.90;;;;;;5029159;28;20387;-64
2023/03/29 01:02:02;;;;;;;;;;;4.80;99.90;;;;;;5034793;28;19925;-64
2023/03/29 01:04:29;;;;;;;;;;;4.80;99.90;;;;;;5032654;28;19933;-64
2023/03/29 01:06:59;;;;;;;;;;;4.90;99.90;;;;;;5034861;28;19929;-64
2023/03/29 01:09:29;;;;;;;;;;;4.90;99.90;;;;;;5025523;28;19952;-63
2023/03/29 01:11:57;;;;;;;;;;;4.90;99.90;;;;;;5034820;28;20420;-63
2023/03/29 01:14:29;;;;;;;;;;;4.90;99.90;;;;;;5020900;28;19930;-64
2023/03/29 01:16:56;;;;;;;;;;;4.90;99.90;;;;;;5033049;28;20434;-64
2023/03/29 01:19:25;;;;;;;;;;;4.90;99.90;;;;;;5032303;28;19931;-64
2023/03/29 01:21:56;;;;;;;;;;;5.00;99.90;;;;;;5030419;28;19925;-63
2023/03/29 01:24:31;;;;;;;;;;;4.90;99.90;;;;;;5034794;28;19925;-64
2023/03/29 01:27:04;;;;;;;;;;;5.00;99.90;;;;;;5024565;28;19971;-64
2023/03/29 01:29:34;;;;;;;;;;;5.00;99.90;;;;;;5029957;28;19925;-64
2023/03/29 01:32:02;;;;;;;;;;;5.00;99.90;;;;;;5031887;28;19929;-64
2023/03/29 01:34:31;;;;;;;;;;;5.00;99.90;;;;;;5033661;28;19933;-64
2023/03/29 01:37:00;;;;;;;;;;;5.00;99.90;;;;;;5030905;28;20020;-64
2023/03/29 01:39:27;;;;;;;;;;;5.00;99.90;;;;;;5032397;28;19979;-64
2023/03/29 01:42:01;;;;;;;;;;;5.00;99.90;;;;;;5033788;28;19925;-64
2023/03/29 01:44:30;;;;;;;;;;;5.00;99.90;;;;;;5034445;28;20307;-64
2023/03/29 01:47:02;;;;;;;;;;;5.10;98.90;;;;;;5028197;28;20403;-64
2023/03/29 01:49:33;;;;;;;;;;;5.10;97.70;;;;;;5029671;28;19928;-63
2023/03/29 01:52:00;;;;;;;;;;;5.10;95.70;;;;;;5034326;28;20003;-64
2023/03/29 01:54:30;;;;;;;;;;;5.10;94.80;;;;;;5033241;28;19995;-64
2023/03/29 01:56:58;;;;;;;;;;;5.10;92.20;;;;;;5031035;28;19929;-64
2023/03/29 01:59:27;;;;;;;;;;;5.20;90.70;;;;;;5027696;28;19979;-63
2023/03/29 02:01:55;;;;;;;;;;;5.20;84.10;;;;;;5026215;28;20409;-64
2023/03/29 02:04:27;;;;;;;;;;;5.20;78.80;;;;;;5033824;28;20383;-64
2023/03/29 02:06:54;;;;;;;;;;;5.20;72.90;;;;;;5026059;28;20032;-64
2023/03/29 02:09:22;;;;;;;;;;;5.20;74.20;;;;;;5028344;28;19984;-64
2023/03/29 02:11:49;;;;;;;;;;;5.20;70.00;;;;;;5026374;28;20383;-64
2023/03/29 02:14:16;;;;;;;;;;;5.20;66.90;;;;;;5028443;28;19971;-64
2023/03/29 02:16:44;;;;;;;;;;;5.20;65.80;;;;;;5030746;28;20437;-64
2023/03/29 02:19:12;;;;;;;;;;;5.20;68.00;;;;;;5034032;28;19925;-64
2023/03/29 02:21:43;;;;;;;;;;;5.30;60.50;;;;;;5035307;28;19929;-63
2023/03/29 02:24:12;;;;;;;;;;;5.30;62.30;;;;;;5029939;28;19983;-64
2023/03/29 02:26:38;;;;;;;;;;;5.30;64.90;;;;;;5031505;28;19948;-64
2023/03/29 02:29:05;;;;;;;;;;;5.30;56.90;;;;;;5028036;28;19925;-64
2023/03/29 02:31:34;;;;;;;;;;;5.40;55.80;;;;;;5030504;28;19940;-64
2023/03/29 02:34:02;;;;;;;;;;;5.40;52.30;;;;;;5029655;28;19931;-63
2023/03/29 02:36:30;;;;;;;;;;;5.40;50.50;;;;;;5032182;28;19951;-64
2023/03/29 02:38:59;;;;;;;;;;;5.40;50.80;;;;;;5028045;28;19933;-63
2023/03/29 02:41:26;;;;;;;;;;;5.40;54.60;;;;;;5030687;28;19971;-63
2023/03/29 02:43:54;;;;;;;;;;;5.50;46.20;;;;;;5024928;28;20261;-63
2023/03/29 02:46:21;;;;;;;;;;;5.50;44.60;;;;;;5030020;28;20012;-63
2023/03/29 02:48:49;;;;;;;;;;;5.50;41.90;;;;;;5028825;28;20632;-64
2023/03/29 02:51:18;;;;;;;;;;;5.50;46.70;;;;;;5029649;28;20415;-63
2023/03/29 02:53:48;;;;;;;;;;;5.50;37.20;;;;;;5030980;28;19972;-64
2023/03/29 02:56:16;;;;;;;;;;;5.60;38.40;;;;;;5029454;28;20015;-64
2023/03/29 02:58:43;;;;;;;;;;;5.60;38.50;;;;;;5027686;28;19926;-64
2023/03/29 03:01:10;;;;;;;;;;;5.60;21.60;;;;;;5029109;28;19933;-63
2023/03/29 03:03:36;;;;;;;;;;;5.70;20.40;;;;;;5031394;28;19925;-63
2023/03/29 03:06:03;;;;;;;;;;;5.70;25.10;;;;;;5032494;28;19925;-64
2023/03/29 03:08:30;;;;;;;;;;;5.70;23.30;;;;;;5028757;28;19983;-64
2023/03/29 03:10:58;;;;;;;;;;;5.70;29.70;;;;;;5028198;28;19925;-63
2023/03/29 03:13:26;;;;;;;;;;;5.70;28.00;;;;;;5028159;28;19925;-64
2023/03/29 03:15:52;;;;;;;;;;;5.70;26.70;;;;;;5026431;28;19932;-63
2023/03/29 03:18:19;;;;;;;;;;;5.70;24.50;;;;;;5028382;28;19929;-64
2023/03/29 03:20:54;;;;;;;;;;;5.70;28.50;;;;;;5032646;28;20277;-64
2023/03/29 03:23:20;;;;;;;;;;;5.70;30.00;;;;;;5029117;28;19925;-63
2023/03/29 03:25:47;;;;;;;;;;;5.70;29.70;;;;;;5027590;28;19936;-64
2023/03/29 03:28:14;;;;;;;;;;;5.70;28.40;;;;;;5028041;28;19925;-64
2023/03/29 03:30:42;;;;;;;;;;;5.70;30.90;;;;;;5028313;28;19978;-64
2023/03/29 03:33:09;;;;;;;;;;;5.80;18.30;;;;;;5025754;28;19929;-63
2023/03/29 03:35:37;;;;;;;;;;;5.80;25.70;;;;;;5032246;28;19994;-64
2023/03/29 03:38:04;;;;;;;;;;;5.80;24.00;;;;;;5030882;28;19925;-63
2023/03/29 03:40:32;;;;;;;;;;;5.80;24.10;;;;;;5027947;28;19925;-64
2023/03/29 03:42:58;;;;;;;;;;;5.80;24.20;;;;;;5026127;28;19939;-63
2023/03/29 03:45:25;;;;;;;;;;;5.90;26.80;;;;;;5032551;28;19925;-63
2023/03/29 03:47:53;;;;;;;;;;;5.90;26.00;;;;;;5027863;28;20002;-64
2023/03/29 03:50:19;;;;;;;;;;;5.90;23.90;;;;;;5032152;28;19937;-64
2023/03/29 03:52:46;;;;;;;;;;;5.90;27.70;;;;;;5027908;28;19925;-64
2023/03/29 03:55:13;;;;;;;;;;;5.90;31.00;;;;;;5032354;28;19976;-64
2023/03/29 03:57:39;;;;;;;;;;;5.90;34.80;;;;;;5027619;28;19933;-64
2023/03/29 04:00:17;;;;;;;;;;;5.90;40.00;;;;;;5027879;28;19926;-64
2023/03/29 04:02:44;;;;;;;;;;;5.90;47.40;;;;;;5031849;28;20324;-64
2023/03/29 04:05:12;;;;;;;;;;;5.90;54.20;;;;;;5023700;28;19929;-64
2023/03/29 04:07:40;;;;;;;;;;;5.80;66.60;;;;;;5031779;28;19971;-64
2023/03/29 04:10:07;;;;;;;;;;;5.90;74.70;;;;;;5024511;28;19933;-64
2023/03/29 04:12:34;;;;;;;;;;;5.80;93.40;;;;;;5033534;28;19925;-64
2023/03/29 04:15:01;;;;;;;;;;;5.80;99.90;;;;;;5028821;28;19929;-64
2023/03/29 04:17:27;;;;;;;;;;;5.80;99.90;;;;;;5027585;28;19951;-64
2023/03/29 04:19:54;;;;;;;;;;;5.80;99.90;;;;;;5030179;28;19932;-64
2023/03/29 04:22:22;;;;;;;;;;;5.80;99.90;;;;;;5028756;28;19965;-64
2023/03/29 04:24:48;;;;;;;;;;;5.80;99.90;;;;;;5042852;28;19925;-64
2023/03/29 04:27:15;;;;;;;;;;;5.80;99.90;;;;;;5032564;28;20059;-64
2023/03/29 04:29:43;;;;;;;;;;;5.80;99.90;;;;;;5031575;28;19925;-64
2023/03/29 04:32:10;;;;;;;;;;;5.80;99.90;;;;;;5035901;28;19931;-64
2023/03/29 04:34:37;;;;;;;;;;;5.80;99.90;;;;;;5034925;28;20375;-64
2023/03/29 04:37:08;;;;;;;;;;;5.80;99.90;;;;;;5035087;28;20331;-64
2023/03/29 04:39:36;;;;;;;;;;;5.80;99.90;;;;;;5027541;28;19948;-64
2023/03/29 04:42:03;;;;;;;;;;;5.80;99.90;;;;;;5035114;28;19925;-64
2023/03/29 04:44:32;;;;;;;;;;;5.80;99.90;;;;;;5027435;28;19925;-63
2023/03/29 04:46:58;;;;;;;;;;;5.80;99.90;;;;;;5034361;28;19929;-64
2023/03/29 04:49:26;;;;;;;;;;;5.80;99.90;;;;;;5029896;28;19925;-64
2023/03/29 04:51:53;;;;;;;;;;;5.90;99.90;;;;;;5029101;28;19925;-64
2023/03/29 04:54:19;;;;;;;;;;;5.90;99.90;;;;;;5030414;28;19930;-64
2023/03/29 04:56:47;;;;;;;;;;;5.90;99.90;;;;;;5032938;28;19980;-64
2023/03/29 04:59:14;;;;;;;;;;;5.90;99.90;;;;;;5029648;28;19925;-64
2023/03/29 05:01:40;;;;;;;;;;;5.90;99.90;;;;;;5032477;28;19925;-64
2023/03/29 05:04:07;;;;;;;;;;;5.90;99.90;;;;;;5029989;28;19971;-64
2023/03/29 05:06:33;;;;;;;;;;;5.90;99.90;;;;;;5034403;28;19925;-64
2023/03/29 05:09:00;;;;;;;;;;;5.90;99.90;;;;;;5025677;28;20368;-64
2023/03/29 05:11:28;;;;;;;;;;;6.00;99.90;;;;;;5032561;28;20016;-64
2023/03/29 05:13:59;;;;;;;;;;;5.90;99.90;;;;;;5028023;28;20019;-64
2023/03/29 05:16:28;;;;;;;;;;;5.90;99.90;;;;;;5032541;28;19936;-62
2023/03/29 05:18:55;;;;;;;;;;;5.90;99.90;;;;;;5035922;28;19936;-63
2023/03/29 05:21:22;;;;;;;;;;;5.90;99.90;;;;;;5036225;28;19979;-62
2023/03/29 05:23:49;;;;;;;;;;;5.90;99.90;;;;;;5033110;28;19936;-62
2023/03/29 05:26:16;;;;;;;;;;;5.80;99.90;;;;;;5034584;28;19929;-61
2023/03/29 05:28:42;;;;;;;;;;;5.80;99.90;;;;;;5030087;28;19926;-61
2023/03/29 05:31:11;;;;;;;;;;;5.70;99.90;;;;;;5030762;28;19929;-63
2023/03/29 05:33:38;;;;;;;;;;;5.70;99.90;;;;;;5025202;28;20445;-62
2023/03/29 05:36:05;;;;;;;;;;;5.60;99.90;;;;;;5033270;28;19929;-63
2023/03/29 05:38:32;;;;;;;;;;;5.60;99.90;;;;;;5030371;28;19971;-62
2023/03/29 05:40:59;;;;;;;;;;;5.60;99.90;;;;;;5025797;28;19937;-63
2023/03/29 05:43:26;;;;;;;;;;;5.60;99.90;;;;;;5027296;28;19926;-62
2023/03/29 05:45:53;;;;;;;;;;;5.50;99.90;;;;;;5034111;28;19933;-63
2023/03/29 05:48:22;;;;;;;;;;;5.50;99.90;;;;;;5033936;28;20032;-64
2023/03/29 05:50:48;;;;;;;;;;;5.50;99.90;;;;;;5030596;28;19929;-67
2023/03/29 05:53:15;;;;;;;;;;;5.50;99.90;;;;;;5032531;28;19932;-67
2023/03/29 05:55:42;;;;;;;;;;;5.50;99.90;;;;;;5029233;28;19925;-68
2023/03/29 05:58:09;;;;;;;;;;;5.60;99.90;;;;;;5032496;28;19983;-70
2023/03/29 06:00:37;;;;;;;;;;;5.70;99.90;;;;;;5032622;28;19929;-69
2023/03/29 06:03:04;;;;;;;;;;;5.70;99.90;;;;;;5032736;28;19925;-69
2023/03/29 06:05:32;;;;;;;;;;;5.70;99.90;;;;;;5032705;28;20290;-70
2023/03/29 06:07:59;;;;;;;;;;;5.70;99.90;;;;;;5032856;28;20023;-71
2023/03/29 06:10:26;;;;;;;;;;;5.80;99.90;;;;;;5029185;28;19971;-71
2023/03/29 06:12:53;;;;;;;;;;;5.90;99.90;;;;;;5032437;28;20520;-72
2023/03/29 06:15:20;;;;;;;;;;;5.90;99.90;;;;;;5028728;28;19933;-71
2023/03/29 06:17:47;;;;;;;;;;;6.00;99.90;;;;;;5030603;28;19925;-63
2023/03/29 06:20:14;;;;;;;;;;;6.00;99.90;;;;;;5032739;28;19929;-63
2023/03/29 06:22:42;;;;;;;;;;;6.10;99.90;;;;;;5033226;28;19934;-63
2023/03/29 06:25:09;;;;;;;;;;;6.20;99.90;;;;;;5024600;28;20012;-64
2023/03/29 06:27:36;;;;;;;;;;;6.20;99.90;;;;;;5033094;28;19925;-63
2023/03/29 06:30:04;;;;;;;;;;;6.20;99.90;;;;;;5028881;28;19959;-64
2023/03/29 06:32:33;;;;;;;;;;;6.30;99.90;;;;;;5029267;28;19940;-64
2023/03/29 06:34:59;;;;;;;;;;;6.30;99.90;;;;;;5028308;28;20399;-64
2023/03/29 06:37:26;;;;;;;;;;;6.30;99.90;;;;;;5028452;28;19925;-65
2023/03/29 06:39:54;;;;;;;;;;;6.30;99.90;;;;;;5028866;28;19931;-63
2023/03/29 06:42:21;;;;;;;;;;;6.30;99.90;;;;;;5028543;28;19929;-63
2023/03/29 06:44:48;;;;;;;;;;;6.40;99.90;;;;;;5028101;28;19979;-62
2023/03/29 06:47:15;;;;;;;;;;;6.40;99.90;;;;;;5028019;28;20342;-63
2023/03/29 06:49:42;;;;;;;;;;;6.40;99.90;;;;;;5027856;28;20443;-63
2023/03/29 06:52:09;;;;;;;;;;;6.50;99.90;;;;;;5032028;28;20410;-62
2023/03/29 06:54:35;;;;;;;;;;;6.50;99.90;;;;;;5024469;28;19925;-62
2023/03/29 06:57:04;;;;;;;;;;;6.50;99.90;;;;;;5028115;28;19929;-62
2023/03/29 06:59:30;;;;;;;;;;;6.50;99.90;;;;;;5028770;28;19929;-62
2023/03/29 07:01:57;;;;;;;;;;;6.60;99.90;;;;;;5032350;28;19925;-63
2023/03/29 07:04:24;;;;;;;;;;;6.60;99.90;;;;;;5024876;28;20439;-63
2023/03/29 07:07:00;;;;;;;;;;;6.70;99.90;;;;;;5031728;28;19968;-64
2023/03/29 07:09:28;;;;;;;;;;;6.70;99.90;;;;;;5028032;28;19925;-63
2023/03/29 07:11:55;;;;;;;;;;;6.70;99.90;;;;;;5031806;28;20330;-65
2023/03/29 07:14:25;;;;;;;;;;;6.80;99.90;;;;;;5027805;28;19925;-64
2023/03/29 07:16:51;;;;;;;;;;;6.80;99.90;;;;;;5029125;28;19925;-64
2023/03/29 07:19:21;;;;;;;;;;;6.90;99.90;;;;;;5031663;28;19925;-64
2023/03/29 07:21:48;;;;;;;;;;;7.00;99.90;;;;;;5026801;28;20642;-66
2023/03/29 07:24:14;;;;;;;;;;;7.10;99.90;;;;;;5029732;28;19929;-64
2023/03/29 07:26:41;;;;;;;;;;;7.20;99.90;;;;;;5029841;28;20450;-64
2023/03/29 07:29:08;;;;;;;;;;;7.20;99.90;;;;;;5026090;28;19972;-63
2023/03/29 07:31:39;;;;;;;;;;;7.20;99.90;;;;;;5030455;28;19925;-63
2023/03/29 07:34:09;;;;;;;;;;;7.30;99.90;;;;;;5030924;28;20020;-63
2023/03/29 07:36:37;;;;;;;;;;;7.50;99.90;;;;;;5030333;28;19929;-63
2023/03/29 07:39:04;;;;;;;;;;;7.60;99.90;;;;;;5031350;28;19976;-63
2023/03/29 07:41:30;;;;;;;;;;;7.60;99.90;;;;;;5026933;28;19955;-63
2023/03/29 07:43:57;;;;;;;;;;;7.70;99.90;;;;;;5028349;28;19925;-62
2023/03/29 07:46:24;;;;;;;;;;;7.70;99.90;;;;;;5025290;28;19925;-63
2023/03/29 07:48:55;;;;;;;;;;;7.70;99.90;;;;;;5029355;28;20554;-63
2023/03/29 07:51:22;;;;;;;;;;;7.70;99.90;;;;;;5032487;28;19937;-64
2023/03/29 07:53:48;;;;;;;;;;;7.70;99.90;;;;;;5034868;28;19979;-62
2023/03/29 07:56:15;;;;;;;;;;;7.70;99.90;;;;;;5029054;28;20007;-63
2023/03/29 07:58:42;;;;;;;;;;;7.80;99.90;;;;;;5041110;28;19952;-63
2023/03/29 08:01:08;;;;;;;;;;;7.80;99.90;;;;;;5045259;28;19931;-64
2023/03/29 08:03:35;;;;;;;;;;;7.90;99.90;;;;;;5038343;28;19929;-63
2023/03/29 08:06:03;;;;;;;;;;;7.90;99.90;;;;;;5022960;28;20375;-62
2023/03/29 08:08:29;;;;;;;;;;;8.00;99.90;;;;;;5035381;28;19936;-63
2023/03/29 08:10:56;;;;;;;;;;;8.00;98.40;;;;;;5023875;28;20353;-63
2023/03/29 08:13:22;;;;;;;;;;;8.10;94.70;;;;;;5035480;28;19952;-63
2023/03/29 08:15:49;;;;;;;;;;;8.20;85.40;;;;;;5031916;28;19925;-62
2023/03/29 08:18:16;;;;;;;;;;;8.30;86.80;;;;;;5035561;28;20513;-63
2023/03/29 08:20:42;;;;;;;;;;;8.40;63.00;;;;;;5032324;28;20045;-63
2023/03/29 08:23:10;;;;;;;;;;;8.40;62.70;;;;;;5036663;28;19925;-63
2023/03/29 08:25:37;;;;;;;;;;;8.50;57.40;;;;;;5034930;28;19924;-63
2023/03/29 08:28:03;;;;;;;;;;;8.50;45.10;;;;;;5035380;28;19937;-64
2023/03/29 08:30:30;;;;;;;;;;;8.50;40.30;;;;;;5030931;28;19937;-67
2023/03/29 08:32:56;;;;;;;;;;;8.60;45.30;;;;;;5034824;28;19987;-67
2023/03/29 08:35:23;;;;;;;;;;;8.70;51.50;;;;;;5029472;28;19983;-65
2023/03/29 08:37:50;;;;;;;;;;;8.70;42.40;;;;;;5033443;28;19945;-65
2023/03/29 08:40:20;;;;;;;;;;;8.70;56.00;;;;;;5027294;28;19929;-64
2023/03/29 08:42:52;;;;;;;;;;;8.70;49.80;;;;;;5033369;28;19951;-64
2023/03/29 08:45:23;;;;;;;;;;;8.70;67.50;;;;;;5027395;28;19925;-64
2023/03/29 08:47:54;;;;;;;;;;;8.60;72.40;;;;;;5028372;28;19971;-64
2023/03/29 08:50:22;;;;;;;;;;;8.60;70.20;;;;;;5029257;28;19936;-63
2023/03/29 08:52:51;;;;;;;;;;;8.60;82.30;;;;;;5029824;28;19925;-65
2023/03/29 08:55:24;;;;;;;;;;;8.60;85.70;;;;;;5033987;28;19931;-63
2023/03/29 08:57:51;;;;;;;;;;;8.60;62.10;;;;;;5023282;28;19925;-64
2023/03/29 09:00:20;;;;;;;;;;;8.60;54.60;;;;;;5036100;28;20303;-63
2023/03/29 09:02:48;;;;;;;;;;;8.70;58.90;;;;;;5033607;28;19925;-62
2023/03/29 09:05:21;;;;;;;;;;;8.70;67.90;;;;;;5030543;28;19925;-63
2023/03/29 09:07:47;;;;;;;;;;;8.70;90.40;;;;;;5028548;28;19952;-64
2023/03/29 09:10:15;;;;;;;;;;;8.80;87.60;;;;;;5034730;28;19925;-64
2023/03/29 09:12:50;;;;;;;;;;;8.90;93.80;;;;;;5030364;28;19924;-66
2023/03/29 09:15:19;;;;;;;;;;;8.90;96.30;;;;;;5033184;28;19925;-64
2023/03/29 09:17:52;;;;;;;;;;;9.00;98.00;;;;;;5033474;28;19972;-66
2023/03/29 09:20:22;;;;;;;;;;;9.10;96.30;;;;;;5031376;28;19932;-65
2023/03/29 09:22:55;;;;;;;;;;;9.10;94.20;;;;;;5031030;28;19952;-65
2023/03/29 09:25:25;;;;;;;;;;;9.20;95.60;;;;;;5031143;28;20011;-65
2023/03/29 09:27:58;;;;;;;;;;;9.40;94.90;;;;;;5034025;28;19979;-67
2023/03/29 09:30:27;;;;;;;;;;;9.40;90.30;;;;;;5030336;28;19932;-65
2023/03/29 09:32:55;;;;;;;;;;;9.50;92.40;;;;;;5033389;28;19953;-66
2023/03/29 09:35:23;;;;;;;;;;;9.60;82.50;;;;;;5030893;28;20331;-65
2023/03/29 09:37:51;;;;;;;;;;;9.70;85.40;;;;;;5033669;28;19925;-64
2023/03/29 09:40:20;;;;;;;;;;;9.80;78.90;;;;;;5029278;28;20000;-65
2023/03/29 09:42:49;;;;;;;;;;;9.90;55.30;;;;;;5034048;28;19924;-66
2023/03/29 09:45:17;;;;;;;;;;;9.90;55.40;;;;;;5024707;28;19932;-67
2023/03/29 09:47:46;;;;;;;;;;;9.90;51.90;;;;;;5034986;28;19947;-65
2023/03/29 09:50:16;;;;;;;;;;;10.10;53.90;;;;;;5030782;28;19925;-65
2023/03/29 09:52:42;;;;;;;;;;;10.20;63.20;;;;;;5030308;28;19925;-64
2023/03/29 09:55:13;;;;;;;;;;;10.20;59.20;;;;;;5026616;28;19925;-64
2023/03/29 09:57:39;;;;;;;;;;;10.30;49.80;;;;;;5031404;28;19925;-64
2023/03/29 10:00:09;;;;;;;;;;;10.20;55.50;;;;;;5028886;28;19929;-64
2023/03/29 10:02:37;;;;;;;;;;;10.20;47.00;;;;;;5033170;28;19961;-64
2023/03/29 10:05:04;;;;;;;;;;;10.00;28.60;;;;;;5029295;28;19979;-64
2023/03/29 10:07:38;;;;;;;;;;;10.00;51.50;;;;;;5033206;28;19929;-64
2023/03/29 10:10:07;;;;;;;;;;;10.20;53.30;;;;;;5028953;28;20573;-64
2023/03/29 10:12:34;;;;;;;;;;;10.20;46.50;;;;;;5032571;28;20692;-64
2023/03/29 10:15:01;;;;;;;;;;;10.50;57.00;;;;;;5028440;28;19929;-63
2023/03/29 10:17:31;;;;;;;;;;;10.60;29.30;;;;;;5033426;28;19932;-64
2023/03/29 10:20:02;;;;;;;;;;;10.70;1.00;;;;;;5026537;28;19925;-63
2023/03/29 10:22:33;;;;;;;;;;;10.80;4.90;;;;;;5034474;28;19956;-64
2023/03/29 10:25:00;;;;;;;;;;;11.00;15.50;;;;;;5021863;28;20008;-66
2023/03/29 10:27:28;;;;;;;;;;;11.10;1.00;;;;;;5032199;28;20304;-63
2023/03/29 10:29:56;;;;;;;;;;;11.30;1.00;;;;;;5028490;28;19932;-63
2023/03/29 10:32:26;;;;;;;;;;;11.20;1.00;;;;;;5032976;28;19929;-63
2023/03/29 10:34:53;;;;;;;;;;;11.10;1.00;;;;;;5028002;28;19932;-64
2023/03/29 10:37:22;;;;;;;;;;;11.00;1.00;;;;;;5032034;28;20354;-64
2023/03/29 10:39:50;;;;;;;;;;;11.00;1.00;;;;;;5025019;28;19925;-63
2023/03/29 10:42:19;;;;;;;;;;;11.00;1.00;;;;;;5032215;28;20377;-65
2023/03/29 10:44:52;;;;;;;;;;;11.10;1.00;;;;;;5027110;28;20334;-65
2023/03/29 10:47:20;;;;;;;;;;;11.30;1.00;;;;;;5027511;28;20335;-66
2023/03/29 10:49:50;;;;;;;;;;;11.40;1.00;;;;;;5026902;28;20327;-64
2023/03/29 10:52:17;;;;;;;;;;;11.40;1.00;;;;;;5031478;28;19957;-65
2023/03/29 10:54:45;;;;;;;;;;;11.50;1.00;;;;;;5028255;28;19963;-65
2023/03/29 10:57:14;;;;;;;;;;;11.60;1.00;;;;;;5030385;28;19932;-64
2023/03/29 10:59:45;;;;;;;;;;;11.70;1.00;;;;;;5025110;28;20012;-66
2023/03/29 11:02:25;;;;;;;;;;;11.90;1.00;;;;;;5032136;28;19936;-65
2023/03/29 11:04:59;;;;;;;;;;;11.80;1.00;;;;;;5026521;28;19925;-65
2023/03/29 11:07:30;;;;;;;;;;;11.90;1.00;;;;;;5027847;28;22428;-64
2023/03/29 11:10:05;;;;;;;;;;;11.90;1.00;;;;;;5027339;28;19925;-64
2023/03/29 11:12:36;;;;;;;;;;;11.90;1.00;;;;;;5029650;28;19936;-64
2023/03/29 11:15:09;;;;;;;;;;;12.10;1.00;;;;;;5026446;28;19932;-64
2023/03/29 11:17:42;;;;;;;;;;;12.10;1.00;;;;;;5032210;28;19925;-64
2023/03/29 11:20:16;;;;;;;;;;;12.20;1.00;;;;;;5027544;28;19979;-65
2023/03/29 11:22:46;;;;;;;;;;;12.40;1.00;;;;;;5026813;28;19951;-64
2023/03/29 11:25:19;;;;;;;;;;;12.60;1.00;;;;;;5030572;28;19925;-64
2023/03/29 11:27:50;;;;;;;;;;;12.70;1.00;;;;;;5031200;28;19925;-68
2023/03/29 11:30:20;;;;;;;;;;;12.90;1.00;;;;;;5030166;28;19929;-67
2023/03/29 11:32:49;;;;;;;;;;;13.00;99.90;;;;;;5040485;28;19925;-64
2023/03/29 11:35:26;;;;;;;;;;;13.10;99.90;;;;;;5034214;28;19929;-64
2023/03/29 11:37:56;;;;;;;;;;;13.10;99.90;;;;;;5033712;28;20016;-64
2023/03/29 11:40:34;;;;;;;;;;;13.10;99.90;;;;;;5039195;28;19925;-65
2023/03/29 11:43:04;;;;;;;;;;;13.30;1.00;;;;;;5039566;28;19926;-65
2023/03/29 11:45:33;;;;;;;;;;;13.30;99.90;;;;;;5017215;28;19968;-63
2023/03/29 11:48:00;;;;;;;;;;;13.40;99.90;;;;;;5031553;28;20058;-64
2023/03/29 11:50:29;;;;;;;;;;;13.40;99.90;;;;;;5025950;28;19933;-63
2023/03/29 11:52:58;;;;;;;;;;;13.40;46.80;;;;;;5031163;28;19929;-64
2023/03/29 11:55:25;;;;;;;;;;;13.50;1.00;;;;;;5026410;28;19925;-64
2023/03/29 11:57:55;;;;;;;;;;;13.70;1.00;;;;;;5031172;28;20016;-66
2023/03/29 12:00:23;;;;;;;;;;;13.70;99.90;;;;;;5025586;28;19952;-65
2023/03/29 12:02:51;;;;;;;;;;;13.60;99.90;;;;;;5029143;28;20036;-65
2023/03/29 12:05:20;;;;;;;;;;;13.50;1.00;;;;;;5026773;28;19929;-65
2023/03/29 12:07:48;;;;;;;;;;;13.50;1.00;;;;;;5026460;28;19925;-65
2023/03/29 12:10:17;;;;;;;;;;;13.60;99.90;;;;;;5027656;28;19929;-65
2023/03/29 12:12:45;;;;;;;;;;;13.80;25.60;;;;;;5023991;28;19925;-65
2023/03/29 12:15:18;;;;;;;;;;;13.70;99.90;;;;;;5025901;28;19925;-64
2023/03/29 12:17:48;;;;;;;;;;;13.60;1.00;;;;;;5030421;28;19933;-66
2023/03/29 12:20:17;;;;;;;;;;;13.60;1.00;;;;;;5028248;28;19948;-67
2023/03/29 12:22:45;;;;;;;;;;;13.70;99.90;;;;;;5031935;28;20350;-65
2023/03/29 12:25:15;;;;;;;;;;;13.90;99.90;;;;;;5028123;28;19979;-66
2023/03/29 12:27:46;;;;;;;;;;;14.00;99.90;;;;;;5027870;28;19976;-65
2023/03/29 12:30:19;;;;;;;;;;;14.00;99.90;;;;;;5026857;28;19956;-65
2023/03/29 12:32:52;;;;;;;;;;;14.10;99.90;;;;;;5031323;28;20047;-66
2023/03/29 12:35:23;;;;;;;;;;;14.20;39.20;;;;;;5024954;28;20368;-66
2023/03/29 12:37:57;;;;;;;;;;;14.00;99.90;;;;;;5029631;28;19948;-66
2023/03/29 12:40:26;;;;;;;;;;;14.10;1.00;;;;;;5017851;28;20299;-67
2023/03/29 12:42:53;;;;;;;;;;;14.00;99.90;;;;;;5032957;28;20035;-65
2023/03/29 12:45:28;;;;;;;;;;;14.10;1.00;;;;;;5027762;28;19929;-65
2023/03/29 12:47:55;;;;;;;;;;;14.20;1.00;;;;;;5029916;28;20295;-64
2023/03/29 12:50:24;;;;;;;;;;;14.30;1.00;;;;;;5031995;28;19929;-65
2023/03/29 12:52:51;;;;;;;;;;;14.10;1.00;;;;;;5026913;28;19968;-66
2023/03/29 12:55:22;;;;;;;;;;;14.20;99.90;;;;;;5027647;28;20376;-65
2023/03/29 12:57:59;;;;;;;;;;;14.20;99.90;;;;;;5029904;28;19979;-65
2023/03/29 13:00:32;;;;;;;;;;;13.70;99.90;;;;;;5028538;28;19993;-64
2023/03/29 13:03:00;;;;;;;;;;;13.80;99.90;;;;;;5030733;28;19972;-65
2023/03/29 13:05:28;;;;;;;;;;;13.80;99.90;;;;;;5034316;28;20479;-64
2023/03/29 13:07:54;;;;;;;;;;;13.90;99.90;;;;;;5030331;28;19932;-64
2023/03/29 13:10:36;;;;;;;;;;;13.90;99.90;;;;;;5030612;28;19983;-65
2023/03/29 13:13:11;;;;;;;;;;;13.90;99.90;;;;;;5025292;28;20406;-62
2023/03/29 13:15:39;;;;;;;;;;;13.70;99.90;;;;;;5030322;28;19925;-65
2023/03/29 13:18:13;;;;;;;;;;;13.90;99.90;;;;;;5031924;28;19929;-64
2023/03/29 13:20:45;;;;;;;;;;;14.10;99.90;;;;;;5031150;28;19925;-64
2023/03/29 13:23:26;;;;;;;;;;;14.20;99.90;;;;;;5031977;28;19925;-64
2023/03/29 13:26:01;;;;;;;;;;;14.30;49.40;;;;;;5028070;28;20028;-66
2023/03/29 13:28:32;;;;;;;;;;;14.40;1.00;;;;;;5032006;28;19929;-64
2023/03/29 13:31:03;;;;;;;;;;;14.40;1.00;;;;;;5033825;28;19929;-64
2023/03/29 13:33:38;;;;;;;;;;;14.50;1.00;;;;;;5034820;28;19925;-64
2023/03/29 13:36:07;;;;;;;;;;;14.70;1.00;;;;;;5030584;28;20398;-64
2023/03/29 13:38:43;;;;;;;;;;;14.80;1.00;;;;;;5034240;28;19929;-65
2023/03/29 13:41:22;;;;;;;;;;;14.70;99.90;;;;;;5031617;28;20406;-64
2023/03/29 13:43:51;;;;;;;;;;;14.50;1.00;;;;;;5029353;28;20007;-64
2023/03/29 13:46:22;;;;;;;;;;;14.30;1.00;;;;;;5031749;28;19929;-65
2023/03/29 13:49:00;;;;;;;;;;;14.00;1.00;;;;;;5031226;28;19925;-64
2023/03/29 13:51:31;;;;;;;;;;;14.00;19.90;;;;;;5035222;28;19952;-64
2023/03/29 13:54:01;;;;;;;;;;;14.00;35.80;;;;;;5030642;28;20315;-64
2023/03/29 13:56:29;;;;;;;;;;;14.10;25.40;;;;;;5026847;28;20376;-64
2023/03/29 13:58:59;;;;;;;;;;;14.20;77.60;;;;;;5033778;28;20395;-65
2023/03/29 14:01:28;;;;;;;;;;;14.00;85.40;;;;;;5030229;28;19931;-63
2023/03/29 14:03:55;;;;;;;;;;;14.00;33.80;;;;;;5034014;28;19952;-63
2023/03/29 14:06:25;;;;;;;;;;;14.10;35.20;;;;;;5030129;28;19925;-63
2023/03/29 14:08:52;;;;;;;;;;;14.10;12.30;;;;;;5033344;28;19931;-63
2023/03/29 14:11:21;;;;;;;;;;;14.30;99.90;;;;;;5030152;28;20010;-63
2023/03/29 14:13:49;;;;;;;;;;;14.40;1.00;;;;;;5033328;28;19925;-63
2023/03/29 14:16:16;;;;;;;;;;;14.40;1.00;;;;;;5029871;28;19948;-63
2023/03/29 14:18:46;;;;;;;;;;;14.40;1.00;;;;;;5033761;28;19925;-63
2023/03/29 14:21:13;;;;;;;;;;;14.50;1.00;;;;;;5020615;28;19932;-65
2023/03/29 14:23:43;;;;;;;;;;;14.60;1.00;;;;;;5029725;28;19926;-63
2023/03/29 14:26:14;;;;;;;;;;;14.70;1.00;;;;;;5028285;28;20288;-64
2023/03/29 14:28:44;;;;;;;;;;;14.80;1.00;;;;;;5029942;28;19925;-63
2023/03/29 14:31:16;;;;;;;;;;;14.70;1.00;;;;;;5032438;28;19932;-64
2023/03/29 14:33:44;;;;;;;;;;;14.50;99.90;;;;;;5032465;28;19980;-63
2023/03/29 14:36:13;;;;;;;;;;;14.50;1.00;;;;;;5033326;28;19925;-64